Time;durP1;ratioP1;P1;durP2;ratioP2;P2;SDS_P1;SDS_P2;PMS_P1;PMS_P2;Temp;Humidity;BMP_temperature;BMP_pressure;BME280_temperature;BME280_humidity;BME280_pressure;Samples;Min_cycle;Max_cycle;Signal;HPM_P1;HPM_P2
2023/04/01 00:00:16;;;;;;;7.53;1.85;;;15.20;99.90;;;;;;5034463;28;20107;-74
2023/04/01 00:02:42;;;;;;;6.30;1.90;;;15.20;99.90;;;;;;5034176;28;20029;-73
2023/04/01 00:05:10;;;;;;;5.07;1.70;;;15.20;99.90;;;;;;5033922;28;20151;-73
2023/04/01 00:07:39;;;;;;;4.22;1.77;;;15.20;99.90;;;;;;5034086;28;20509;-74
2023/04/01 00:10:07;;;;;;;8.20;2.38;;;15.20;99.90;;;;;;5015860;28;20029;-74
2023/04/01 00:12:33;;;;;;;7.20;2.22;;;15.10;99.90;;;;;;5034123;28;20485;-74
2023/04/01 00:14:59;;;;;;;6.95;2.13;;;15.10;99.90;;;;;;5033923;28;20486;-73
2023/04/01 00:17:24;;;;;;;6.38;2.20;;;15.10;99.90;;;;;;5033668;28;20030;-74
2023/04/01 00:19:50;;;;;;;6.07;2.17;;;15.10;99.90;;;;;;5033871;28;20498;-73
2023/04/01 00:22:16;;;;;;;5.75;2.15;;;15.10;99.90;;;;;;5034033;28;20021;-73
2023/04/01 00:24:42;;;;;;;4.93;1.92;;;15.10;99.90;;;;;;5033301;28;20100;-73
2023/04/01 00:27:08;;;;;;;5.53;2.05;;;15.10;99.90;;;;;;5032719;28;20025;-73
2023/04/01 00:29:34;;;;;;;6.38;2.15;;;15.10;99.90;;;;;;5033799;28;20479;-73
2023/04/01 00:32:00;;;;;;;5.80;2.22;;;15.10;99.90;;;;;;5033596;28;20053;-73
2023/04/01 00:34:26;;;;;;;6.32;2.65;;;15.10;99.90;;;;;;5033766;28;20030;-73
2023/04/01 00:36:52;;;;;;;7.63;2.60;;;15.00;99.90;;;;;;5033363;28;20022;-73
2023/04/01 00:39:19;;;;;;;11.05;3.30;;;15.00;99.90;;;;;;5033353;28;20100;-74
2023/04/01 00:41:44;;;;;;;8.18;2.72;;;14.90;99.90;;;;;;5033369;28;20079;-73
2023/04/01 00:44:29;;;;;;;4.20;2.33;;;14.90;99.90;;;;;;5033646;28;20033;-73
2023/04/01 00:46:54;;;;;;;6.95;3.10;;;14.90;99.90;;;;;;5033442;28;20030;-74
2023/04/01 00:49:24;;;;;;;5.97;2.80;;;14.90;99.90;;;;;;5033239;28;20040;-74
2023/04/01 00:51:54;;;;;;;4.75;2.35;;;14.90;99.90;;;;;;5033035;28;20052;-73
2023/04/01 00:54:21;;;;;;;7.13;2.72;;;14.90;99.90;;;;;;5033317;28;20528;-73
2023/04/01 00:56:51;;;;;;;4.95;2.83;;;14.90;99.90;;;;;;5033116;28;20120;-73
2023/04/01 00:59:25;;;;;;;5.00;2.80;;;14.90;99.90;;;;;;5033181;28;20022;-73
2023/04/01 01:01:51;;;;;;;8.30;2.65;;;14.90;99.90;;;;;;5033165;28;20025;-73
2023/04/01 01:04:28;;;;;;;5.60;3.20;;;14.80;99.90;;;;;;5032971;28;20021;-73
2023/04/01 01:07:24;;;;;;;6.75;3.53;;;14.80;99.90;;;;;;5032514;28;20064;-74
2023/04/01 01:10:17;;;;;;;10.57;3.50;;;14.80;99.90;;;;;;5032966;28;20037;-73
2023/04/01 01:13:12;;;;;;;;;;;14.80;99.90;;;;;;5033262;28;20025;-73
2023/04/01 01:15:45;;;;;;;5.38;2.35;;;14.70;99.90;;;;;;4945112;28;19993;-73
2023/04/01 01:18:20;;;;;;;5.20;2.45;;;14.80;99.90;;;;;;5032720;28;20175;-73
2023/04/01 01:21:28;;;;;;;5.30;2.30;;;14.70;99.90;;;;;;5032494;28;20064;-73
2023/04/01 01:24:03;;;;;;;4.85;2.30;;;14.70;99.90;;;;;;5032842;28;20116;-73
2023/04/01 01:26:56;;;;;;;8.35;2.70;;;14.60;99.90;;;;;;5032711;28;20446;-73
2023/04/01 01:29:59;;;;;;;7.15;3.38;;;14.60;99.90;;;;;;5032613;28;20041;-73
2023/04/01 01:32:38;;;;;;;7.88;3.60;;;14.60;99.90;;;;;;5032581;28;20025;-73
2023/04/01 01:35:21;;;;;;;4.90;3.25;;;14.60;99.90;;;;;;5032625;28;20052;-73
2023/04/01 01:37:49;;;;;;;5.95;2.38;;;14.60;99.90;;;;;;5032159;28;20352;-73
2023/04/01 01:40:16;;;;;;;4.63;2.85;;;14.60;99.90;;;;;;5032442;28;20017;-73
2023/04/01 01:42:48;;;;;;;6.15;2.97;;;14.60;99.90;;;;;;5032431;28;20049;-73
2023/04/01 01:45:17;;;;;;;4.57;2.33;;;14.60;99.90;;;;;;5032570;28;20025;-73
2023/04/01 01:47:45;;;;;;;5.68;2.10;;;14.70;99.90;;;;;;5032194;28;20479;-73
2023/04/01 01:50:11;;;;;;;6.07;2.78;;;14.70;99.90;;;;;;5032200;28;20475;-73
2023/04/01 01:52:37;;;;;;;4.22;2.30;;;14.70;99.90;;;;;;5032507;28;20522;-73
2023/04/01 01:55:03;;;;;;;6.53;2.75;;;14.60;99.90;;;;;;5032531;28;20030;-73
2023/04/01 01:57:33;;;;;;;5.32;1.95;;;14.60;99.90;;;;;;5032239;28;20029;-73
2023/04/01 02:00:12;;;;;;;5.82;2.45;;;14.60;99.90;;;;;;5032457;28;20017;-73
2023/04/01 02:02:40;;;;;;;5.97;2.35;;;14.60;99.90;;;;;;5032398;28;20438;-73
2023/04/01 02:05:07;;;;;;;4.75;2.47;;;14.60;99.90;;;;;;5032073;28;20120;-72
2023/04/01 02:07:35;;;;;;;6.43;2.80;;;14.60;99.90;;;;;;5032416;28;20025;-73
2023/04/01 02:10:02;;;;;;;6.45;2.40;;;14.50;99.90;;;;;;5032385;28;20112;-73
2023/04/01 02:12:29;;;;;;;6.10;2.25;;;14.60;99.90;;;;;;5032035;28;20033;-73
2023/04/01 02:15:06;;;;;;;3.45;1.98;;;14.60;99.90;;;;;;5032279;28;20071;-73
2023/04/01 02:17:34;;;;;;;4.90;2.40;;;14.60;99.90;;;;;;5032038;28;20037;-73
2023/04/01 02:20:11;;;;;;;5.47;2.83;;;14.50;99.90;;;;;;5032085;28;20057;-73
2023/04/01 02:22:47;;;;;;;6.07;3.30;;;14.50;99.90;;;;;;5014376;28;20105;-73
2023/04/01 02:25:18;;;;;;;2.95;1.58;;;14.60;99.90;;;;;;5032114;28;20112;-73
2023/04/01 02:27:45;;;;;;;5.35;2.63;;;14.50;99.90;;;;;;5032038;28;20073;-73
2023/04/01 02:30:12;;;;;;;5.70;2.88;;;14.50;99.90;;;;;;5030940;28;20017;-74
2023/04/01 02:32:39;;;;;;;3.70;2.50;;;14.50;99.90;;;;;;5027744;28;20037;-73
2023/04/01 02:35:10;;;;;;;4.78;2.72;;;14.60;99.90;;;;;;5031630;28;20060;-73
2023/04/01 02:37:37;;;;;;;3.53;2.50;;;14.50;99.90;;;;;;5031781;28;20130;-73
2023/04/01 02:40:09;;;;;;;3.95;2.65;;;14.50;99.90;;;;;;5031615;28;20044;-73
2023/04/01 02:42:35;;;;;;;5.20;2.25;;;14.50;99.90;;;;;;5031850;28;20022;-73
2023/04/01 02:45:01;;;;;;;2.83;1.60;;;14.50;99.90;;;;;;5014082;28;20409;-73
2023/04/01 02:47:26;;;;;;;5.97;1.80;;;14.50;99.90;;;;;;5031956;28;20040;-73
2023/04/01 02:49:57;;;;;;;2.83;1.60;;;14.50;99.90;;;;;;5033615;28;20446;-74
2023/04/01 02:52:28;;;;;;;4.70;1.77;;;14.40;99.90;;;;;;5035646;28;20052;-72
2023/04/01 02:54:54;;;;;;;2.35;1.63;;;14.40;99.90;;;;;;5035033;28;20364;-73
2023/04/01 02:57:20;;;;;;;3.15;1.65;;;14.40;99.90;;;;;;5035603;28;20017;-73
2023/04/01 02:59:46;;;;;;;3.08;1.35;;;14.40;99.90;;;;;;5035513;28;20104;-73
2023/04/01 03:02:12;;;;;;;3.30;1.23;;;14.40;99.90;;;;;;5035075;28;20065;-73
2023/04/01 03:04:38;;;;;;;2.25;1.02;;;14.40;99.90;;;;;;5035329;28;20056;-73
2023/04/01 03:07:03;;;;;;;1.67;1.02;;;14.40;99.90;;;;;;5035138;28;20454;-73
2023/04/01 03:09:29;;;;;;;2.92;1.48;;;14.40;99.90;;;;;;5034983;28;20033;-73
2023/04/01 03:11:55;;;;;;;2.35;1.42;;;14.40;99.90;;;;;;5035103;28;20025;-73
2023/04/01 03:14:21;;;;;;;3.17;1.48;;;14.40;99.90;;;;;;5035120;28;20036;-73
2023/04/01 03:16:46;;;;;;;2.40;1.33;;;14.30;99.90;;;;;;5034704;28;20067;-73
2023/04/01 03:19:12;;;;;;;3.92;1.58;;;14.40;99.90;;;;;;5033123;28;20045;-73
2023/04/01 03:21:37;;;;;;;2.00;1.38;;;14.30;99.90;;;;;;5034995;28;20025;-74
2023/04/01 03:24:03;;;;;;;2.83;1.33;;;14.30;99.90;;;;;;5015201;28;20120;-73
2023/04/01 03:26:29;;;;;;;4.03;1.60;;;14.30;99.90;;;;;;5034423;28;20060;-73
2023/04/01 03:28:55;;;;;;;3.78;1.73;;;14.20;99.90;;;;;;5034455;28;20124;-73
2023/04/01 03:31:21;;;;;;;3.85;1.90;;;14.30;99.90;;;;;;5034549;28;20032;-72
2023/04/01 03:33:47;;;;;;;3.65;1.50;;;14.30;99.90;;;;;;5034811;28;20434;-73
2023/04/01 03:36:13;;;;;;;3.35;1.95;;;14.30;99.90;;;;;;5034746;28;20887;-73
2023/04/01 03:38:40;;;;;;;4.45;2.00;;;14.30;99.90;;;;;;5034828;28;20018;-73
2023/04/01 03:41:06;;;;;;;4.10;1.90;;;14.30;99.90;;;;;;5034471;28;20026;-73
2023/04/01 03:43:33;;;;;;;7.03;2.45;;;14.20;99.90;;;;;;5034670;28;20026;-73
2023/04/01 03:45:58;;;;;;;3.25;2.00;;;14.20;99.90;;;;;;5034281;28;20072;-73
2023/04/01 03:48:25;;;;;;;3.95;2.20;;;14.20;99.90;;;;;;5034405;28;20030;-73
2023/04/01 03:50:51;;;;;;;4.97;2.28;;;14.20;99.90;;;;;;5034512;28;20105;-73
2023/04/01 03:53:17;;;;;;;5.15;2.30;;;14.20;99.90;;;;;;5034367;28;20051;-73
2023/04/01 03:55:42;;;;;;;3.15;2.03;;;14.20;99.90;;;;;;5034222;28;20018;-73
2023/04/01 03:58:08;;;;;;;5.15;2.42;;;14.20;99.90;;;;;;5031272;28;20021;-74
2023/04/01 04:00:34;;;;;;;4.53;2.30;;;14.20;99.90;;;;;;5029100;28;20418;-74
2023/04/01 04:03:00;;;;;;;3.78;2.30;;;14.20;99.90;;;;;;5031971;28;20394;-74
2023/04/01 04:05:26;;;;;;;4.05;2.25;;;14.20;99.90;;;;;;5033004;28;20029;-73
2023/04/01 04:07:53;;;;;;;4.30;2.13;;;14.20;99.90;;;;;;5034284;28;20036;-73
2023/04/01 04:10:19;;;;;;;3.75;2.38;;;14.20;99.90;;;;;;5034224;28;20020;-73
2023/04/01 04:12:45;;;;;;;5.13;2.22;;;14.20;99.90;;;;;;5033790;28;20474;-73
2023/04/01 04:15:11;;;;;;;4.22;2.00;;;14.20;99.90;;;;;;5031822;28;20025;-73
2023/04/01 04:17:37;;;;;;;2.65;1.60;;;14.20;99.90;;;;;;5033730;28;20510;-73
2023/04/01 04:20:03;;;;;;;2.53;1.40;;;14.20;99.90;;;;;;5033809;28;20045;-73
2023/04/01 04:22:29;;;;;;;3.88;2.20;;;14.20;99.90;;;;;;5033914;28;20108;-73
2023/04/01 04:24:55;;;;;;;4.20;2.15;;;14.20;99.90;;;;;;5033906;28;20491;-73
2023/04/01 04:27:20;;;;;;;3.40;2.10;;;14.20;99.90;;;;;;5033795;28;20025;-73
2023/04/01 04:29:46;;;;;;;2.92;2.50;;;14.20;99.90;;;;;;5033470;28;20026;-73
2023/04/01 04:32:11;;;;;;;3.08;2.20;;;14.20;99.90;;;;;;5031796;28;20121;-72
2023/04/01 04:34:37;;;;;;;4.80;2.38;;;14.20;99.90;;;;;;5012941;28;20474;-73
2023/04/01 04:37:03;;;;;;;5.35;1.90;;;14.10;99.90;;;;;;5049766;28;20032;-73
2023/04/01 04:39:28;;;;;;;2.72;1.73;;;14.20;99.90;;;;;;5052379;28;20465;-73
2023/04/01 04:41:54;;;;;;;3.13;1.90;;;14.20;99.90;;;;;;5053159;28;20043;-73
2023/04/01 04:44:20;;;;;;;3.22;1.90;;;14.20;99.90;;;;;;5053079;28;20063;-73
2023/04/01 04:46:45;;;;;;;5.13;2.50;;;14.20;99.90;;;;;;5053457;28;20453;-73
2023/04/01 04:49:11;;;;;;;3.65;1.90;;;14.10;99.90;;;;;;5051936;28;20111;-73
2023/04/01 04:51:37;;;;;;;3.10;2.08;;;14.20;99.90;;;;;;5034054;28;20028;-73
2023/04/01 04:54:03;;;;;;;3.42;2.35;;;14.10;99.90;;;;;;5053341;28;20021;-73
2023/04/01 04:56:30;;;;;;;3.20;1.95;;;14.10;99.90;;;;;;5035154;28;20104;-73
2023/04/01 04:58:56;;;;;;;3.40;2.22;;;14.10;99.90;;;;;;5052748;28;20036;-73
2023/04/01 05:01:22;;;;;;;2.92;2.50;;;14.10;99.90;;;;;;5024978;28;20030;-73
2023/04/01 05:03:47;;;;;;;5.20;2.45;;;14.10;99.90;;;;;;5032402;28;20367;-73
2023/04/01 05:06:14;;;;;;;3.28;2.92;;;14.10;99.90;;;;;;5032242;28;20048;-73
2023/04/01 05:08:42;;;;;;;5.07;2.55;;;14.10;99.90;;;;;;5031514;28;20038;-73
2023/04/01 05:11:12;;;;;;;2.88;2.40;;;14.10;99.90;;;;;;5032724;28;20029;-73
2023/04/01 05:13:38;;;;;;;4.00;1.83;;;14.10;99.90;;;;;;5032223;28;20029;-72
2023/04/01 05:16:08;;;;;;;2.97;1.67;;;14.10;99.90;;;;;;5015110;28;20085;-73
2023/04/01 05:18:34;;;;;;;2.83;1.95;;;14.10;99.90;;;;;;5032818;28;20394;-73
2023/04/01 05:20:59;;;;;;;4.13;1.52;;;14.10;99.90;;;;;;5033048;28;20120;-73
2023/04/01 05:23:25;;;;;;;3.15;1.27;;;14.00;99.90;;;;;;5032740;28;20037;-73
2023/04/01 05:25:52;;;;;;;3.38;1.23;;;14.10;99.90;;;;;;5032795;28;20022;-73
2023/04/01 05:28:19;;;;;;;1.40;1.05;;;14.00;99.90;;;;;;5032240;28;20099;-72
2023/04/01 05:30:45;;;;;;;2.47;1.30;;;14.00;99.90;;;;;;5015256;28;20072;-72
2023/04/01 05:33:12;;;;;;;2.03;1.30;;;14.00;99.90;;;;;;5032495;28;20406;-74
2023/04/01 05:35:39;;;;;;;3.42;1.15;;;14.00;99.90;;;;;;5032667;28;20021;-73
2023/04/01 05:38:05;;;;;;;2.92;1.50;;;14.00;99.90;;;;;;5014816;28;20025;-73
2023/04/01 05:40:31;;;;;;;1.98;1.10;;;13.90;99.90;;;;;;5032704;28;20014;-73
2023/04/01 05:42:56;;;;;;;1.35;0.70;;;14.00;99.90;;;;;;5032351;28;20048;-73
2023/04/01 05:45:22;;;;;;;2.00;0.68;;;14.00;99.90;;;;;;5032565;28;20045;-73
2023/04/01 05:47:48;;;;;;;1.85;0.63;;;14.00;99.90;;;;;;5032333;28;20336;-73
2023/04/01 05:50:13;;;;;;;2.13;0.80;;;13.90;99.90;;;;;;5032596;28;20026;-73
2023/04/01 05:52:39;;;;;;;1.55;0.57;;;13.90;99.90;;;;;;5014861;28;20029;-73
2023/04/01 05:55:06;;;;;;;1.95;1.10;;;13.90;99.90;;;;;;5032665;28;20030;-73
2023/04/01 05:57:32;;;;;;;1.15;0.60;;;13.90;99.90;;;;;;5032121;28;20497;-73
2023/04/01 05:59:57;;;;;;;2.33;0.80;;;13.90;99.90;;;;;;5032344;28;20033;-73
2023/04/01 06:02:23;;;;;;;1.05;0.45;;;13.80;99.90;;;;;;5032461;28;20022;-73
2023/04/01 06:04:49;;;;;;;0.65;0.20;;;13.90;99.90;;;;;;5032452;28;20485;-72
2023/04/01 06:07:16;;;;;;;2.08;0.52;;;14.00;99.90;;;;;;5032407;28;20040;-72
2023/04/01 06:09:44;;;;;;;1.00;0.52;;;14.10;99.90;;;;;;5032593;28;20025;-74
2023/04/01 06:12:37;;;;;;;1.70;0.50;;;14.20;99.90;;;;;;5014375;28;20356;-74
2023/04/01 06:15:28;;;;;;;2.03;0.50;;;14.30;99.90;;;;;;5032178;28;20025;-71
2023/04/01 06:18:17;;;;;;;2.88;0.50;;;14.40;99.90;;;;;;5032026;28;20029;-75
2023/04/01 06:21:15;;;;;;;1.85;0.57;;;14.40;99.90;;;;;;5014646;28;20029;-74
2023/04/01 06:24:07;;;;;;;1.55;0.32;;;14.40;99.90;;;;;;5021989;28;20017;-72
2023/04/01 06:26:44;;;;;;;1.30;0.25;;;14.40;99.90;;;;;;5029760;28;20036;-73
2023/04/01 06:29:21;;;;;;;1.00;0.30;;;14.50;99.90;;;;;;5018194;28;20113;-72
2023/04/01 06:31:55;;;;;;;2.53;0.60;;;14.50;99.90;;;;;;5021760;28;20028;-72
2023/04/01 06:34:39;;;;;;;3.97;0.93;;;14.50;99.90;;;;;;5036081;28;20025;-72
2023/04/01 06:37:40;;;;;;;2.17;0.45;;;14.50;99.90;;;;;;5030663;28;20502;-72
2023/04/01 06:40:45;;;;;;;2.45;0.63;;;14.50;99.90;;;;;;5024299;28;20401;-72
2023/04/01 06:43:10;;;;;;;1.20;0.50;;;14.60;99.90;;;;;;5009510;28;20046;-72
2023/04/01 06:45:50;;;;;;;2.50;0.30;;;14.60;99.90;;;;;;5032192;28;20036;-72
2023/04/01 06:48:33;;;;;;;1.42;0.50;;;14.50;99.90;;;;;;5029627;28;20494;-71
2023/04/01 06:51:09;;;;;;;2.15;0.20;;;14.50;99.90;;;;;;5025051;28;20053;-72
2023/04/01 06:53:37;;;;;;;1.67;0.50;;;14.60;99.90;;;;;;5033083;28;20174;-72
2023/04/01 06:56:10;;;;;;;1.50;0.40;;;14.50;99.90;;;;;;5035108;28;20025;-72
2023/04/01 06:58:41;;;;;;;2.45;0.63;;;14.60;99.90;;;;;;5034035;28;20033;-71
2023/04/01 07:01:13;;;;;;;3.42;0.35;;;14.60;99.90;;;;;;5031597;28;20064;-71
2023/04/01 07:03:51;;;;;;;4.22;0.57;;;14.70;99.90;;;;;;5023552;28;20104;-71
2023/04/01 07:06:43;;;;;;;3.70;0.20;;;14.60;99.90;;;;;;5022983;28;20043;-71
2023/04/01 07:09:14;;;;;;;7.13;0.40;;;14.70;99.90;;;;;;5032292;28;20041;-71
2023/04/01 07:11:40;;;;;;;2.90;0.52;;;14.60;99.90;;;;;;5033224;28;20087;-72
2023/04/01 07:14:11;;;;;;;2.05;0.40;;;14.60;99.90;;;;;;5034058;28;20030;-72
2023/04/01 07:16:52;;;;;;;2.28;0.50;;;14.60;99.90;;;;;;5031982;28;20041;-71
2023/04/01 07:19:30;;;;;;;4.35;0.60;;;14.60;99.90;;;;;;5022327;28;20033;-71
2023/04/01 07:22:18;;;;;;;2.17;0.30;;;14.60;99.90;;;;;;5023893;28;20029;-72
2023/04/01 07:24:45;;;;;;;2.67;0.22;;;14.70;99.90;;;;;;5031140;28;20520;-71
2023/04/01 07:27:13;;;;;;;1.13;0.28;;;14.70;99.90;;;;;;5023763;28;20034;-72
2023/04/01 07:29:39;;;;;;;2.25;0.55;;;14.60;99.90;;;;;;5022452;28;20037;-71
2023/04/01 07:32:24;;;;;;;3.50;0.40;;;14.60;99.90;;;;;;5023698;28;20053;-73
2023/04/01 07:35:11;;;;;;;1.60;0.60;;;14.70;99.90;;;;;;5018692;28;20431;-73
2023/04/01 07:37:59;;;;;;;2.42;0.32;;;14.60;99.90;;;;;;5023738;28;20460;-71
2023/04/01 07:41:06;;;;;;;1.63;0.20;;;14.70;99.90;;;;;;5027214;28;20505;-74
2023/04/01 07:43:53;;;;;;;1.48;0.22;;;14.70;99.90;;;;;;4911915;29;20028;-70
2023/04/01 07:46:35;;;;;;;2.65;0.70;;;14.70;99.90;;;;;;5024275;28;20034;-74
2023/04/01 07:49:27;;;;;;;2.55;0.40;;;14.70;99.90;;;;;;5023366;28;20041;-71
2023/04/01 07:51:59;;;;;;;2.33;0.50;;;14.70;99.90;;;;;;5021856;28;20041;-72
2023/04/01 07:54:46;;;;;;;2.42;0.28;;;14.70;99.90;;;;;;5029025;28;20727;-74
2023/04/01 07:57:30;;;;;;;1.33;0.20;;;14.70;99.90;;;;;;5026101;28;20026;-74
2023/04/01 08:00:22;;;;;;;2.15;0.40;;;14.70;99.90;;;;;;5023591;28;20492;-73
2023/04/01 08:03:14;;;;;;;1.30;0.50;;;14.60;99.90;;;;;;5028403;28;20112;-74
2023/04/01 08:05:57;;;;;;;4.15;0.70;;;14.60;99.90;;;;;;5028284;28;20382;-73
2023/04/01 08:08:25;;;;;;;1.83;0.30;;;14.60;99.90;;;;;;5028102;28;20029;-75
2023/04/01 08:11:13;;;;;;;1.83;0.35;;;14.60;99.90;;;;;;5021679;28;20057;-72
2023/04/01 08:14:03;;;;;;;1.73;0.55;;;14.60;99.90;;;;;;5029112;28;20061;-72
2023/04/01 08:16:37;;;;;;;5.68;0.50;;;14.60;99.90;;;;;;5014300;28;20030;-72
2023/04/01 08:19:21;;;;;;;2.20;0.32;;;14.60;99.90;;;;;;5005165;28;20052;-74
2023/04/01 08:21:52;;;;;;;1.80;0.47;;;14.50;99.90;;;;;;5023182;28;20025;-73
2023/04/01 08:24:25;;;;;;;1.65;0.50;;;14.60;99.90;;;;;;5041982;28;20025;-72
2023/04/01 08:26:56;;;;;;;1.83;0.47;;;14.60;99.90;;;;;;5031210;28;20426;-71
2023/04/01 08:29:26;;;;;;;0.90;0.38;;;14.60;99.90;;;;;;5026831;28;20398;-72
2023/04/01 08:31:58;;;;;;;1.13;0.30;;;14.50;99.90;;;;;;5028957;28;20154;-71
2023/04/01 08:34:33;;;;;;;0.50;0.30;;;14.50;99.90;;;;;;5030396;28;20471;-71
2023/04/01 08:37:19;;;;;;;1.20;0.38;;;14.50;99.90;;;;;;5022637;28;20091;-72
2023/04/01 08:39:56;;;;;;;1.33;0.45;;;14.40;99.90;;;;;;5012223;28;20028;-72
2023/04/01 08:42:21;;;;;;;1.33;0.30;;;14.40;99.90;;;;;;5025576;28;20715;-72
2023/04/01 08:45:15;;;;;;;0.93;0.40;;;14.40;99.90;;;;;;5025511;28;20033;-72
2023/04/01 08:48:26;;;;;;;3.65;0.80;;;14.50;99.90;;;;;;5029304;28;20188;-70
2023/04/01 08:51:29;;;;;;;2.30;0.38;;;14.50;99.90;;;;;;5024286;28;20037;-72
2023/04/01 08:54:16;;;;;;;0.55;0.10;;;14.50;99.90;;;;;;5030857;28;20064;-78
2023/04/01 08:56:53;;;;;;;3.00;0.30;;;14.60;99.90;;;;;;5030652;28;20049;-71
2023/04/01 08:59:44;;;;;;;2.85;0.20;;;14.70;99.90;;;;;;5021985;28;20033;-72
2023/04/01 09:02:42;;;;;;;0.85;0.25;;;14.70;99.90;;;;;;5026941;28;20025;-74
2023/04/01 09:05:30;;;;;;;2.30;0.30;;;14.70;99.90;;;;;;5027488;28;20383;-76
2023/04/01 09:08:01;;;;;;;1.25;0.35;;;14.70;99.90;;;;;;5028118;28;20104;-72
2023/04/01 09:10:55;;;;;;;2.72;0.70;;;14.60;99.90;;;;;;5030238;28;20029;-77
2023/04/01 09:13:55;;;;;;;7.63;0.93;;;14.70;99.90;;;;;;4999488;28;20153;-73
2023/04/01 09:16:59;;;;;;;5.90;0.50;;;14.80;99.90;;;;;;5021872;28;20458;-71
2023/04/01 09:19:31;;;;;;;6.20;0.73;;;14.90;99.90;;;;;;5022653;28;20368;-74
2023/04/01 09:22:23;;;;;;;10.15;0.70;;;14.80;99.90;;;;;;5021109;28;20045;-80
2023/04/01 09:25:10;;;;;;;4.78;0.50;;;14.90;99.90;;;;;;5034659;28;20034;-78
2023/04/01 09:28:26;;;;;;;1.67;0.40;;;14.80;99.90;;;;;;5010435;28;20504;-74
2023/04/01 09:31:08;;;;;;;3.70;0.90;;;14.80;99.90;;;;;;4994333;28;20045;-72
2023/04/01 09:34:01;;;;;;;5.65;2.25;;;14.90;99.90;;;;;;5022229;28;20067;-77
2023/04/01 09:36:39;;;;;;;7.72;2.40;;;14.90;99.90;;;;;;5024482;28;20020;-73
2023/04/01 09:39:33;;;;;;;6.55;2.95;;;14.90;99.90;;;;;;5021596;28;20029;-72
2023/04/01 09:42:26;;;;;;;15.52;5.88;;;14.90;99.90;;;;;;5025774;28;20053;-72
2023/04/01 09:45:07;;;;;;;11.75;5.97;;;15.00;99.90;;;;;;5028703;28;20064;-71
2023/04/01 09:47:51;;;;;;;11.98;8.23;;;14.90;99.90;;;;;;5035795;28;20382;-75
2023/04/01 09:50:41;;;;;;;14.23;5.95;;;15.00;99.90;;;;;;5036917;28;20041;-74
2023/04/01 09:53:27;;;;;;;13.23;6.63;;;15.00;99.90;;;;;;5037621;28;20466;-73
2023/04/01 09:56:29;;;;;;;8.25;3.25;;;15.00;99.90;;;;;;5021202;28;20029;-71
2023/04/01 09:59:23;;;;;;;12.60;7.25;;;15.00;99.90;;;;;;5027917;28;20095;-73
2023/04/01 10:02:07;;;;;;;10.70;5.15;;;15.00;99.90;;;;;;5025301;28;21624;-72
2023/04/01 10:05:07;;;;;;;9.30;5.60;;;15.00;99.90;;;;;;5039471;28;20032;-72
2023/04/01 10:08:16;;;;;;;12.40;4.82;;;15.00;99.90;;;;;;5044523;28;20033;-76
2023/04/01 10:11:13;;;;;;;4.38;1.85;;;15.10;99.90;;;;;;5021031;28;20034;-78
2023/04/01 10:13:48;;;;;;;5.85;2.63;;;15.10;99.90;;;;;;5013283;28;20025;-75
2023/04/01 10:16:50;;;;;;;5.53;1.52;;;15.10;99.90;;;;;;5031567;28;20131;-72
2023/04/01 10:19:50;;;;;;;4.97;2.58;;;15.10;99.90;;;;;;5030389;28;20514;-75
2023/04/01 10:23:04;;;;;;;11.38;4.40;;;15.10;99.90;;;;;;5035251;28;20041;-77
2023/04/01 10:25:55;;;;;;;11.00;3.78;;;15.10;99.90;;;;;;4979922;28;20045;-74
2023/04/01 10:28:44;;;;;;;7.75;2.28;;;15.10;99.90;;;;;;5030107;28;20478;-74
2023/04/01 10:31:13;;;;;;;4.22;1.23;;;15.20;99.90;;;;;;5030288;28;20344;-74
2023/04/01 10:33:54;;;;;;;11.80;3.35;;;14.90;99.90;;;;;;5031873;28;20039;-79
2023/04/01 10:36:40;;;;;;;7.28;2.75;;;15.10;99.90;;;;;;5031422;28;20030;-77
2023/04/01 10:39:32;;;;;;;10.13;2.42;;;15.30;99.90;;;;;;5033586;28;20356;-73
2023/04/01 10:42:34;;;;;;;2.70;1.00;;;15.30;99.90;;;;;;4999740;28;20483;-72
2023/04/01 10:45:18;;;;;;;9.32;1.90;;;15.00;99.90;;;;;;5015819;28;20486;-74
2023/04/01 10:48:18;;;;;;;12.65;2.70;;;14.80;99.90;;;;;;5037973;28;20029;-71
2023/04/01 10:50:55;;;;;;;6.32;1.70;;;15.10;99.90;;;;;;5032457;28;20029;-75
2023/04/01 10:53:42;;;;;;;7.43;2.03;;;15.10;99.90;;;;;;5032005;28;20488;-73
2023/04/01 10:56:21;;;;;;;5.75;2.00;;;15.70;99.90;;;;;;5031797;28;20040;-74
2023/04/01 10:59:12;;;;;;;1.48;0.70;;;15.40;99.90;;;;;;5033003;28;20056;-74
2023/04/01 11:01:58;;;;;;;2.58;1.08;;;15.00;99.90;;;;;;5031938;28;20111;-77
2023/04/01 11:04:45;;;;;;;2.97;1.02;;;15.30;99.90;;;;;;5014006;28;20025;-71
2023/04/01 11:07:48;;;;;;;4.90;1.45;;;15.40;99.90;;;;;;5024565;28;20050;-72
2023/04/01 11:10:44;;;;;;;5.10;1.50;;;15.40;99.90;;;;;;5027596;28;20051;-72
2023/04/01 11:13:42;;;;;;;1.02;0.52;;;15.40;99.90;;;;;;5037727;28;20033;-73
2023/04/01 11:16:26;;;;;;;1.77;0.70;;;15.20;99.90;;;;;;5018481;28;20624;-74
2023/04/01 11:19:25;;;;;;;3.08;1.05;;;15.00;99.90;;;;;;5022872;28;20033;-73
2023/04/01 11:22:22;;;;;;;4.18;0.88;;;14.70;99.90;;;;;;5036699;28;20024;-71
2023/04/01 11:25:19;;;;;;;1.77;0.65;;;14.70;99.90;;;;;;5023472;28;20483;-72
2023/04/01 11:28:04;;;;;;;1.35;0.50;;;14.80;99.90;;;;;;4975366;28;20054;-72
2023/04/01 11:31:02;;;;;;;2.90;0.93;;;14.60;99.90;;;;;;5023550;28;20021;-75
2023/04/01 11:33:38;;;;;;;2.03;0.57;;;15.00;99.90;;;;;;4998333;28;20075;-71
2023/04/01 11:36:13;;;;;;;3.40;0.88;;;14.90;99.90;;;;;;5027971;28;20021;-72
2023/04/01 11:39:05;;;;;;;1.58;0.60;;;15.00;99.90;;;;;;5021419;28;20033;-71
2023/04/01 11:41:40;;;;;;;2.08;0.52;;;14.70;99.90;;;;;;5022514;28;20081;-71
2023/04/01 11:44:22;;;;;;;2.22;0.52;;;15.10;99.90;;;;;;5024110;28;20100;-72
2023/04/01 11:47:10;;;;;;;2.83;0.50;;;15.40;99.90;;;;;;5023646;28;20029;-70
2023/04/01 11:50:04;;;;;;;2.05;0.52;;;15.60;99.90;;;;;;5020997;28;20045;-71
2023/04/01 11:52:54;;;;;;;1.95;0.32;;;15.70;99.90;;;;;;5025979;28;20169;-70
2023/04/01 11:55:40;;;;;;;2.42;0.55;;;15.70;99.90;;;;;;5022312;28;20084;-69
2023/04/01 11:58:40;;;;;;;3.55;0.60;;;15.70;99.90;;;;;;5036997;28;20021;-74
2023/04/01 12:01:25;;;;;;;0.82;0.40;;;15.90;99.90;;;;;;5024233;28;20048;-77
2023/04/01 12:04:02;;;;;;;1.40;0.63;;;16.00;99.90;;;;;;5025829;28;20426;-71
2023/04/01 12:07:00;;;;;;;2.53;0.50;;;16.00;99.90;;;;;;5022210;28;20075;-70
2023/04/01 12:09:44;;;;;;;2.88;0.30;;;16.20;99.90;;;;;;5013199;28;20045;-71
2023/04/01 12:12:12;;;;;;;2.53;0.55;;;16.10;99.90;;;;;;5022175;28;20055;-76
2023/04/01 12:14:47;;;;;;;2.92;0.50;;;16.00;99.90;;;;;;5025687;28;20022;-73
2023/04/01 12:17:26;;;;;;;2.58;0.70;;;16.00;99.90;;;;;;5027930;28;20502;-71
2023/04/01 12:20:28;;;;;;;1.33;0.82;;;16.00;99.90;;;;;;5025038;28;20025;-74
2023/04/01 12:23:37;;;;;;;3.17;0.80;;;15.90;99.90;;;;;;4998954;28;20375;-73
2023/04/01 12:26:27;;;;;;;3.15;0.73;;;15.90;99.90;;;;;;5022571;28;20108;-72
2023/04/01 12:29:24;;;;;;;2.60;0.90;;;16.20;99.90;;;;;;5018314;28;20045;-75
2023/04/01 12:32:15;;;;;;;3.45;0.82;;;16.00;99.90;;;;;;5046324;28;20029;-71
2023/04/01 12:35:02;;;;;;;0.95;0.30;;;16.20;99.90;;;;;;5028653;28;20021;-71
2023/04/01 12:37:59;;;;;;;2.00;0.40;;;16.10;99.90;;;;;;5031081;28;20029;-71
2023/04/01 12:40:49;;;;;;;3.58;0.77;;;15.90;99.90;;;;;;5023709;28;20462;-74
2023/04/01 12:43:27;;;;;;;2.83;0.40;;;15.90;99.90;;;;;;5032390;28;20029;-71
2023/04/01 12:45:59;;;;;;;1.40;0.20;;;15.90;99.90;;;;;;5027293;28;20521;-77
2023/04/01 12:48:35;;;;;;;1.17;0.30;;;15.90;99.90;;;;;;5021445;28;20079;-77
2023/04/01 12:51:22;;;;;;;1.15;0.30;;;15.60;99.90;;;;;;5032528;28;20373;-70
2023/04/01 12:54:08;;;;;;;11.40;1.70;;;15.60;99.90;;;;;;5023841;28;20033;-70
2023/04/01 12:56:45;;;;;;;1.35;0.80;;;15.80;99.90;;;;;;4989195;28;20033;-70
2023/04/01 12:59:34;;;;;;;2.55;0.55;;;15.70;99.90;;;;;;5023591;28;20034;-72
2023/04/01 13:02:11;;;;;;;3.42;0.60;;;15.20;99.90;;;;;;5014010;28;20156;-72
2023/04/01 13:05:11;;;;;;;1.83;0.30;;;14.90;99.90;;;;;;5027116;28;20021;-76
2023/04/01 13:07:56;;;;;;;4.45;0.50;;;15.00;99.90;;;;;;5024515;28;20064;-73
2023/04/01 13:11:08;;;;;;;5.15;0.57;;;15.10;99.90;;;;;;5020996;28;20445;-74
2023/04/01 13:13:42;;;;;;;3.60;0.73;;;15.30;99.90;;;;;;4926393;29;20027;-71
2023/04/01 13:16:39;;;;;;;1.30;0.30;;;15.10;99.90;;;;;;4920752;29;20553;-70
2023/04/01 13:19:25;;;;;;;2.50;0.63;;;14.80;99.90;;;;;;5004712;28;20052;-70
2023/04/01 13:22:13;;;;;;;2.95;0.65;;;14.90;99.90;;;;;;5025871;28;20104;-71
2023/04/01 13:24:56;;;;;;;3.40;0.40;;;14.90;99.90;;;;;;5022687;28;20030;-71
2023/04/01 13:27:36;;;;;;;4.40;0.77;;;15.20;99.90;;;;;;5033654;28;20021;-74
2023/04/01 13:30:08;;;;;;;2.65;0.50;;;15.40;99.90;;;;;;5029489;28;20048;-75
2023/04/01 13:32:46;;;;;;;3.45;0.35;;;15.70;99.90;;;;;;5026002;28;20075;-73
2023/04/01 13:35:30;;;;;;;2.08;0.40;;;15.80;99.90;;;;;;5020419;28;20053;-78
2023/04/01 13:38:04;;;;;;;1.02;0.30;;;15.90;99.90;;;;;;5026350;28;20029;-72